createdAt,value
2023-01-10T00:00:27.493Z,101261.91
2023-01-10T00:02:54.126Z,101277.47
2023-01-10T00:05:20.732Z,101281.81
2023-01-10T00:07:47.342Z,101286.16
2023-01-10T00:10:14.119Z,101299.13
2023-01-10T00:12:59.088Z,101302.56
2023-01-10T00:15:25.565Z,101307.72
2023-01-10T00:17:52.023Z,101316.28
2023-01-10T00:20:19.237Z,101320.56
2023-01-10T00:22:45.824Z,101336.00
2023-01-10T00:25:12.249Z,101342.00
2023-01-10T00:27:39.287Z,101344.50
2023-01-10T00:30:13.869Z,101343.63
2023-01-10T00:32:45.165Z,101347.91
2023-01-10T00:35:12.925Z,101342.75
2023-01-10T00:37:40.671Z,101339.22
2023-01-10T00:40:11.177Z,101344.38
2023-01-10T00:42:56.344Z,101347.78
2023-01-10T00:45:25.010Z,101346.91
2023-01-10T00:47:52.145Z,101346.03
2023-01-10T00:50:18.885Z,101345.16
2023-01-10T00:52:45.307Z,101348.56
2023-01-10T00:55:11.769Z,101358.00
2023-01-10T00:57:38.362Z,101362.25
2023-01-10T01:00:09.055Z,101366.53
2023-01-10T01:02:35.912Z,101368.25
2023-01-10T01:05:02.394Z,101372.50
2023-01-10T01:07:28.899Z,101369.97
2023-01-10T01:10:13.837Z,101381.19
2023-01-10T01:12:40.293Z,101382.06
2023-01-10T01:15:07.244Z,101379.56
2023-01-10T01:17:33.658Z,101380.47
2023-01-10T01:20:00.102Z,101383.06
2023-01-10T01:22:26.535Z,101390.78
2023-01-10T01:24:53.040Z,101401.97
2023-01-10T01:27:20.909Z,101403.72
2023-01-10T01:29:47.334Z,101409.66
2023-01-10T01:32:13.867Z,101397.59
2023-01-10T01:34:41.074Z,101405.28
2023-01-10T01:37:07.596Z,101410.41
2023-01-10T01:39:34.059Z,101406.91
2023-01-10T01:42:00.564Z,101411.19
2023-01-10T01:44:38.012Z,101415.44
2023-01-10T01:47:16.571Z,101417.19
2023-01-10T01:49:45.062Z,101420.63
2023-01-10T01:52:27.400Z,101424.00
2023-01-10T01:54:58.708Z,101423.97
2023-01-10T01:57:28.247Z,101432.59
2023-01-10T01:59:56.012Z,101426.66
2023-01-10T02:02:29.041Z,101428.47
2023-01-10T02:05:11.059Z,101431.16
2023-01-10T02:07:40.609Z,101425.22
2023-01-10T02:10:13.492Z,101426.97
2023-01-10T02:12:40.379Z,101427.03
2023-01-10T02:15:07.405Z,101430.47
2023-01-10T02:17:33.891Z,101433.03
2023-01-10T02:20:05.718Z,101436.47
2023-01-10T02:22:50.956Z,101437.28
2023-01-10T02:25:51.521Z,101434.66
2023-01-10T02:28:24.040Z,101442.38
2023-01-10T02:31:26.456Z,101449.25
2023-01-10T02:34:28.671Z,101454.38
2023-01-10T02:37:00.964Z,101452.66
2023-01-10T02:39:37.683Z,101457.78
2023-01-10T02:42:09.630Z,101461.25
2023-01-10T02:44:54.824Z,101456.84
2023-01-10T02:47:21.418Z,101462.03
2023-01-10T02:49:50.051Z,101469.78
2023-01-10T02:52:28.103Z,101465.41
2023-01-10T02:55:01.536Z,101468.81
2023-01-10T02:58:01.638Z,101471.44
2023-01-10T03:00:56.654Z,101467.97
2023-01-10T03:03:37.687Z,101470.50
2023-01-10T03:06:24.249Z,101476.44
2023-01-10T03:08:53.822Z,101485.03
2023-01-10T03:11:39.972Z,101487.63
2023-01-10T03:14:15.121Z,101486.75
2023-01-10T03:16:47.427Z,101485.94
2023-01-10T03:19:18.947Z,101492.78
2023-01-10T03:21:49.360Z,101496.31
2023-01-10T03:24:31.901Z,101498.94
2023-01-10T03:27:18.849Z,101508.41
2023-01-10T03:29:54.467Z,101517.78
2023-01-10T03:32:25.177Z,101516.94
2023-01-10T03:34:52.690Z,101520.38
2023-01-10T03:37:36.032Z,101522.06
2023-01-10T03:40:43.263Z,101522.03
2023-01-10T03:43:55.876Z,101530.59
2023-01-10T03:46:31.496Z,101535.75
2023-01-10T03:48:59.649Z,101534.06
2023-01-10T03:51:28.004Z,101538.38
2023-01-10T03:53:54.530Z,101542.72
2023-01-10T03:56:21.024Z,101541.00
2023-01-10T03:58:47.790Z,101541.03
2023-01-10T04:01:14.298Z,101543.66
2023-01-10T04:03:40.867Z,101552.34
2023-01-10T04:06:07.530Z,101552.41
2023-01-10T04:08:34.015Z,101564.56
2023-01-10T04:11:00.519Z,101558.66
2023-01-10T04:13:26.976Z,101563.03
2023-01-10T04:15:53.546Z,101562.28
2023-01-10T04:18:20.136Z,101565.69
2023-01-10T04:20:46.664Z,101572.66
2023-01-10T04:23:13.162Z,101576.94
2023-01-10T04:25:39.696Z,101570.06
2023-01-10T04:28:06.213Z,101577.84
2023-01-10T04:30:32.698Z,101585.66
2023-01-10T04:32:59.121Z,101588.28
2023-01-10T04:35:25.660Z,101594.41
2023-01-10T04:37:52.083Z,101591.88
2023-01-10T04:40:19.744Z,101601.44
2023-01-10T04:42:46.303Z,101599.78
2023-01-10T04:45:14.406Z,101611.06
2023-01-10T04:47:40.938Z,101604.19
2023-01-10T04:50:07.837Z,101607.69
2023-01-10T04:52:34.263Z,101606.91
2023-01-10T04:55:00.749Z,101606.91
2023-01-10T04:57:27.241Z,101625.84
2023-01-10T04:59:53.800Z,101612.97
2023-01-10T05:02:20.477Z,101614.75
2023-01-10T05:04:47.005Z,101622.56
2023-01-10T05:07:13.594Z,101621.72
2023-01-10T05:09:40.140Z,101623.50
2023-01-10T05:12:06.669Z,101626.97
2023-01-10T05:14:33.259Z,101608.13
2023-01-10T05:16:59.677Z,101618.50
2023-01-10T05:19:26.188Z,101630.63
2023-01-10T05:21:53.355Z,101640.19
2023-01-10T05:24:19.955Z,101633.38
2023-01-10T05:26:46.378Z,101637.75
2023-01-10T05:29:14.430Z,101652.41
2023-01-10T05:31:41.512Z,101663.59
2023-01-10T05:34:11.885Z,101681.69
2023-01-10T05:36:38.639Z,101673.09
2023-01-10T05:39:05.400Z,101657.59
2023-01-10T05:41:31.847Z,101659.28
2023-01-10T05:43:58.303Z,101678.16
2023-01-10T05:46:24.830Z,101677.25
2023-01-10T05:48:52.812Z,101681.44
2023-01-10T05:51:19.362Z,101689.97
2023-01-10T05:53:45.802Z,101693.34
2023-01-10T05:56:12.302Z,101688.09
2023-01-10T05:58:38.781Z,101688.91
2023-01-10T06:01:05.398Z,101687.09
2023-01-10T06:03:31.984Z,101681.84
2023-01-10T06:05:58.502Z,101686.09
2023-01-10T06:08:25.144Z,101688.63
2023-01-10T06:10:51.960Z,101696.34
2023-01-10T06:13:18.480Z,101697.09
2023-01-10T06:15:45.072Z,101703.09
2023-01-10T06:18:12.473Z,101694.44
2023-01-10T06:20:40.209Z,101692.66
2023-01-10T06:23:07.045Z,101708.09
2023-01-10T06:25:40.596Z,101707.22
2023-01-10T06:28:12.157Z,101712.28
2023-01-10T06:30:41.913Z,101726.03
2023-01-10T06:33:09.527Z,101719.97
2023-01-10T06:35:36.455Z,101727.66
2023-01-10T06:38:03.338Z,101723.34
2023-01-10T06:40:29.891Z,101729.31
2023-01-10T06:42:56.373Z,101725.81
2023-01-10T06:45:22.886Z,101725.78
2023-01-10T06:47:49.388Z,101733.47
2023-01-10T06:50:16.064Z,101738.63
2023-01-10T06:52:42.599Z,101746.34
2023-01-10T06:55:09.811Z,101745.47
2023-01-10T06:57:38.122Z,101742.84
2023-01-10T07:00:06.956Z,101747.13
2023-01-10T07:02:33.492Z,101748.88
2023-01-10T07:04:59.931Z,101748.84
2023-01-10T07:07:26.378Z,101755.72
2023-01-10T07:09:53.036Z,101763.41
2023-01-10T07:12:19.491Z,101757.41
2023-01-10T07:14:46.041Z,101748.75
2023-01-10T07:17:12.499Z,101753.03
2023-01-10T07:19:38.995Z,101756.47
2023-01-10T07:22:05.448Z,101766.78
2023-01-10T07:24:31.940Z,101771.13
2023-01-10T07:26:58.398Z,101778.94
2023-01-10T07:29:24.891Z,101779.78
2023-01-10T07:31:51.917Z,101788.41
2023-01-10T07:34:18.543Z,101797.84
2023-01-10T07:36:45.012Z,101814.22
2023-01-10T07:39:11.604Z,101808.19
2023-01-10T07:41:38.107Z,101809.91
2023-01-10T07:44:04.913Z,101815.97
2023-01-10T07:46:31.534Z,101821.97
2023-01-10T07:48:58.110Z,101826.28
2023-01-10T07:51:24.562Z,101812.56
2023-01-10T07:53:51.375Z,101820.31
2023-01-10T07:56:17.906Z,101824.66
2023-01-10T07:58:46.252Z,101824.66
2023-01-10T08:01:12.754Z,101826.44
2023-01-10T08:03:39.507Z,101828.13
2023-01-10T08:06:08.187Z,101832.50
2023-01-10T08:08:34.963Z,101826.47
2023-01-10T08:11:04.778Z,101840.25
2023-01-10T08:13:32.840Z,101839.41
2023-01-10T08:15:59.417Z,101844.53
2023-01-10T08:18:26.256Z,101843.72
2023-01-10T08:20:54.271Z,101841.16
2023-01-10T08:23:21.383Z,101836.88
2023-01-10T08:25:48.400Z,101842.06
2023-01-10T08:28:15.120Z,101839.50
2023-01-10T08:30:41.894Z,101850.69
2023-01-10T08:33:10.203Z,101848.09
2023-01-10T08:35:38.847Z,101847.25
2023-01-10T08:38:05.522Z,101845.47
2023-01-10T08:40:32.310Z,101848.91
2023-01-10T08:43:04.595Z,101847.16
2023-01-10T08:45:31.494Z,101839.41
2023-01-10T08:47:58.149Z,101841.16
2023-01-10T08:50:25.595Z,101835.97
2023-01-10T08:52:52.085Z,101827.38
2023-01-10T08:55:19.361Z,101827.34
2023-01-10T08:57:46.011Z,101823.91
2023-01-10T09:00:13.228Z,101831.56
2023-01-10T09:02:40.737Z,101824.66
2023-01-10T09:05:15.041Z,101822.91
2023-01-10T09:07:48.783Z,101827.19
2023-01-10T09:10:15.415Z,101822.00
2023-01-10T09:12:57.200Z,101821.97
2023-01-10T09:15:29.396Z,101832.31
2023-01-10T09:18:00.837Z,101833.94
2023-01-10T09:20:29.172Z,101834.78
2023-01-10T09:22:56.975Z,101827.94
2023-01-10T09:25:24.836Z,101833.09
2023-01-10T09:28:01.306Z,101826.19
2023-01-10T09:30:28.938Z,101830.53
2023-01-10T09:32:56.920Z,101820.19
2023-01-10T09:35:24.903Z,101827.94
2023-01-10T09:37:55.364Z,101828.72
2023-01-10T09:40:41.173Z,101821.84
2023-01-10T09:43:18.156Z,101834.75
2023-01-10T09:45:51.947Z,101824.41
2023-01-10T09:48:37.909Z,101822.69
2023-01-10T09:51:29.300Z,101816.59
2023-01-10T09:54:10.778Z,101815.75
2023-01-10T09:56:39.149Z,101820.00
2023-01-10T09:59:06.349Z,101816.53
2023-01-10T10:01:37.492Z,101835.47
2023-01-10T10:04:35.064Z,101842.34
2023-01-10T10:07:04.178Z,101838.94
2023-01-10T10:09:35.230Z,101832.06
2023-01-10T10:12:21.342Z,101825.19
2023-01-10T10:14:54.691Z,101824.28
2023-01-10T10:17:29.641Z,101824.31
2023-01-10T10:20:17.037Z,101814.84
2023-01-10T10:23:18.464Z,101815.66
2023-01-10T10:26:09.793Z,101811.31
2023-01-10T10:28:54.845Z,101818.16
2023-01-10T10:31:37.654Z,101804.34
2023-01-10T10:34:16.364Z,101806.81
2023-01-10T10:36:58.880Z,101801.66
2023-01-10T10:39:31.533Z,101801.66
2023-01-10T10:41:58.751Z,101798.19
2023-01-10T10:44:37.119Z,101795.59
2023-01-10T10:47:13.512Z,101807.72
2023-01-10T10:50:15.145Z,101788.78
2023-01-10T10:52:44.312Z,101793.09
2023-01-10T10:55:19.557Z,101787.94
2023-01-10T10:57:59.289Z,101775.97
2023-01-10T11:00:27.545Z,101766.53
2023-01-10T11:03:07.363Z,101769.13
2023-01-10T11:05:46.114Z,101762.25
2023-01-10T11:08:16.951Z,101763.09
2023-01-10T11:10:48.131Z,101755.28
2023-01-10T11:13:32.958Z,101756.13
2023-01-10T11:16:01.443Z,101753.53
2023-01-10T11:18:29.542Z,101747.47
2023-01-10T11:21:04.611Z,101745.72
2023-01-10T11:23:39.941Z,101745.69
2023-01-10T11:26:34.595Z,101750.84
2023-01-10T11:29:16.940Z,101745.69
2023-01-10T11:31:45.212Z,101750.78
2023-01-10T11:34:29.764Z,101744.75
2023-01-10T11:37:18.704Z,101738.69
2023-01-10T11:39:45.150Z,101739.59
2023-01-10T11:42:30.345Z,101729.19
2023-01-10T11:45:19.410Z,101729.19
2023-01-10T11:47:55.901Z,101726.56
2023-01-10T11:50:28.280Z,101725.72
2023-01-10T11:52:56.201Z,101725.66
2023-01-10T11:55:31.857Z,101724.75
2023-01-10T11:58:04.461Z,101719.56
2023-01-10T12:00:40.750Z,101719.59
2023-01-10T12:03:42.928Z,101710.00
2023-01-10T12:06:15.817Z,101710.84
2023-01-10T12:08:42.585Z,101709.09
2023-01-10T12:11:17.997Z,101703.03
2023-01-10T12:13:52.606Z,101696.97
2023-01-10T12:16:24.160Z,101688.28
2023-01-10T12:18:52.901Z,101685.69
2023-01-10T12:21:41.245Z,101680.53
2023-01-10T12:24:18.588Z,101677.88
2023-01-10T12:26:47.301Z,101669.28
2023-01-10T12:29:24.459Z,101652.84
2023-01-10T12:31:53.968Z,101648.50
2023-01-10T12:34:25.170Z,101648.50
2023-01-10T12:37:20.269Z,101644.97
2023-01-10T12:39:59.379Z,101635.47
2023-01-10T12:42:48.689Z,101637.97
2023-01-10T12:45:24.642Z,101634.47
2023-01-10T12:48:00.125Z,101632.72
2023-01-10T12:50:32.644Z,101634.47
2023-01-10T12:53:30.220Z,101632.72
2023-01-10T12:56:00.377Z,101627.50
2023-01-10T12:58:44.022Z,101619.72
2023-01-10T13:01:45.926Z,101611.91
2023-01-10T13:04:18.345Z,101604.13
2023-01-10T13:06:45.645Z,101590.34
2023-01-10T13:09:22.657Z,101601.50
2023-01-10T13:12:02.480Z,101589.44
2023-01-10T13:14:33.973Z,101575.59
2023-01-10T13:17:29.614Z,101570.38
2023-01-10T13:20:19.296Z,101572.03
2023-01-10T13:22:54.079Z,101559.03
2023-01-10T13:25:22.495Z,101556.44
2023-01-10T13:27:57.294Z,101556.38
2023-01-10T13:30:32.186Z,101553.78
2023-01-10T13:33:05.954Z,101551.97
2023-01-10T13:35:43.970Z,101537.31
2023-01-10T13:38:39.337Z,101540.69
2023-01-10T13:41:08.211Z,101527.75
2023-01-10T13:44:00.949Z,101526.84
2023-01-10T13:46:30.506Z,101530.25
2023-01-10T13:49:00.146Z,101537.97
2023-01-10T13:51:27.769Z,101534.44
2023-01-10T13:54:19.221Z,101524.03
2023-01-10T13:56:45.840Z,101525.75
2023-01-10T13:59:46.176Z,101517.94
2023-01-10T14:02:29.603Z,101511.00
2023-01-10T14:05:00.712Z,101495.41
2023-01-10T14:07:29.273Z,101511.78
2023-01-10T14:10:21.102Z,101497.06
2023-01-10T14:13:09.067Z,101490.16
2023-01-10T14:15:41.382Z,101496.16
2023-01-10T14:18:22.505Z,101482.38
2023-01-10T14:21:07.530Z,101490.19
2023-01-10T14:23:51.632Z,101486.72
2023-01-10T14:26:40.372Z,101484.28
2023-01-10T14:29:12.688Z,101470.63
2023-01-10T14:31:47.036Z,101456.97
2023-01-10T14:34:25.969Z,101454.50
2023-01-10T14:37:03.456Z,101453.75
2023-01-10T14:39:30.787Z,101443.47
2023-01-10T14:42:07.947Z,101434.91
2023-01-10T14:44:46.535Z,101433.25
2023-01-10T14:47:34.335Z,101435.91
2023-01-10T14:50:02.315Z,101424.75
2023-01-10T14:52:29.387Z,101423.06
2023-01-10T14:55:04.262Z,101413.59
2023-01-10T14:57:30.785Z,101404.19
2023-01-10T15:00:34.559Z,101386.16
2023-01-10T15:03:03.895Z,101387.06
2023-01-10T15:05:33.980Z,101377.59
2023-01-10T15:08:24.033Z,101365.56
2023-01-10T15:11:05.733Z,101357.84
2023-01-10T15:13:37.514Z,101355.31
2023-01-10T15:16:05.575Z,101350.16
2023-01-10T15:18:45.485Z,101346.78
2023-01-10T15:21:14.300Z,101341.63
2023-01-10T15:23:43.490Z,101345.91
2023-01-10T15:26:26.865Z,101342.47
2023-01-10T15:29:12.554Z,101330.44
2023-01-10T15:31:41.215Z,101309.81
2023-01-10T15:34:26.591Z,101313.25
2023-01-10T15:36:56.017Z,101299.47
2023-01-10T15:39:26.393Z,101305.50
2023-01-10T15:42:03.669Z,101290.06
2023-01-10T15:44:45.067Z,101291.81
2023-01-10T15:47:33.086Z,101293.50
2023-01-10T15:49:59.638Z,101290.09
2023-01-10T15:52:26.133Z,101288.41
2023-01-10T15:54:52.914Z,101278.06
2023-01-10T15:57:25.643Z,101280.69
2023-01-10T15:59:52.497Z,101272.94
2023-01-10T16:02:30.693Z,101263.44
2023-01-10T16:05:06.597Z,101257.41
2023-01-10T16:07:35.886Z,101255.69
2023-01-10T16:10:22.859Z,101264.34
2023-01-10T16:13:07.915Z,101245.38
2023-01-10T16:15:36.633Z,101251.44
2023-01-10T16:18:03.088Z,101230.81
2023-01-10T16:20:32.096Z,101226.53
2023-01-10T16:22:59.951Z,101221.38
2023-01-10T16:25:38.915Z,101219.72
2023-01-10T16:28:06.132Z,101206.78
2023-01-10T16:30:34.636Z,101206.81
2023-01-10T16:33:12.541Z,101186.25
2023-01-10T16:35:39.560Z,101196.59
2023-01-10T16:38:06.002Z,101180.19
2023-01-10T16:40:41.693Z,101169.84
2023-01-10T16:43:21.520Z,101169.00
2023-01-10T16:45:51.143Z,101168.25
2023-01-10T16:48:19.523Z,101177.81
2023-01-10T16:50:47.330Z,101156.25
2023-01-10T16:53:16.257Z,101151.16
2023-01-10T16:55:52.877Z,101135.72
2023-01-10T16:58:20.628Z,101150.34
2023-01-10T17:00:51.097Z,101157.22
2023-01-10T17:03:22.013Z,101152.94
2023-01-10T17:05:49.044Z,101141.75
2023-01-10T17:08:21.124Z,101122.81
2023-01-10T17:10:52.577Z,101128.81
2023-01-10T17:13:32.374Z,101125.41
2023-01-10T17:15:58.964Z,101126.25
2023-01-10T17:18:28.526Z,101119.38
2023-01-10T17:20:57.196Z,101120.22
2023-01-10T17:23:25.163Z,101102.13
2023-01-10T17:25:59.152Z,101117.63
2023-01-10T17:28:25.751Z,101111.63
2023-01-10T17:30:52.447Z,101115.97
2023-01-10T17:33:18.884Z,101105.63
2023-01-10T17:35:45.355Z,101107.31
2023-01-10T17:38:14.276Z,101087.47
2023-01-10T17:40:46.045Z,101098.66
2023-01-10T17:43:13.685Z,101065.00
2023-01-10T17:45:41.027Z,101081.31
2023-01-10T17:48:08.241Z,101091.59
2023-01-10T17:50:36.038Z,101084.63
2023-01-10T17:53:02.507Z,101086.34
2023-01-10T17:55:28.942Z,101070.78
2023-01-10T17:57:55.444Z,101062.16
2023-01-10T18:00:21.951Z,101067.31
2023-01-10T18:02:48.754Z,101069.84
2023-01-10T18:05:15.493Z,101074.06
2023-01-10T18:07:41.926Z,101053.34
2023-01-10T18:10:09.130Z,101055.03
2023-01-10T18:12:36.781Z,101054.91
2023-01-10T18:15:04.600Z,101056.63
2023-01-10T18:17:31.074Z,101047.97
2023-01-10T18:19:57.469Z,101034.06
2023-01-10T18:22:42.296Z,101030.63
2023-01-10T18:25:08.892Z,101033.09
2023-01-10T18:27:36.167Z,101030.38
2023-01-10T18:30:02.855Z,101023.44
2023-01-10T18:32:29.371Z,101025.13
2023-01-10T18:34:55.826Z,101021.59
2023-01-10T18:37:22.260Z,101028.41
2023-01-10T18:39:49.530Z,101037.84
2023-01-10T18:42:16.355Z,101012.78
2023-01-10T18:44:42.859Z,101014.47
2023-01-10T18:47:09.370Z,101010.09
2023-01-10T18:49:35.806Z,101010.03
2023-01-10T18:52:02.251Z,100998.75
2023-01-10T18:54:28.659Z,101009.03
2023-01-10T18:56:55.992Z,101002.00
2023-01-10T18:59:23.100Z,101006.22
2023-01-10T19:01:49.750Z,101008.78
2023-01-10T19:04:17.442Z,100996.59
2023-01-10T19:06:44.269Z,101008.56
2023-01-10T19:09:11.020Z,100993.81
2023-01-10T19:11:37.459Z,100999.81
2023-01-10T19:14:04.235Z,100990.13
2023-01-10T19:16:34.175Z,100989.19
2023-01-10T19:19:09.018Z,100991.66
2023-01-10T19:21:38.940Z,100996.72
2023-01-10T19:24:08.023Z,100985.34
2023-01-10T19:26:34.897Z,100987.03
2023-01-10T19:29:04.237Z,100993.81
2023-01-10T19:31:30.750Z,100973.84
2023-01-10T19:34:01.439Z,100972.88
2023-01-10T19:36:28.799Z,100971.97
2023-01-10T19:38:57.091Z,100973.56
2023-01-10T19:41:28.610Z,100959.66
2023-01-10T19:43:59.505Z,100956.09
2023-01-10T19:46:27.218Z,100960.31
2023-01-10T19:48:56.676Z,100957.59
2023-01-10T19:51:23.488Z,100957.56
2023-01-10T19:53:49.980Z,100943.72
2023-01-10T19:56:21.719Z,100949.63
2023-01-10T19:58:49.141Z,100948.59
2023-01-10T20:01:19.517Z,100943.28
2023-01-10T20:03:47.727Z,100944.97
2023-01-10T20:06:17.271Z,100943.97
2023-01-10T20:08:44.948Z,100931.78
2023-01-10T20:11:11.603Z,100937.69
2023-01-10T20:13:44.430Z,100938.50
2023-01-10T20:16:16.975Z,100930.72
2023-01-10T20:18:43.968Z,100928.97
2023-01-10T20:21:13.070Z,100916.84
2023-01-10T20:23:41.089Z,100908.91
2023-01-10T20:26:27.859Z,100917.47
2023-01-10T20:28:56.127Z,100919.09
2023-01-10T20:31:23.933Z,100907.78
2023-01-10T20:33:51.049Z,100898.16
2023-01-10T20:36:19.354Z,100905.06
2023-01-10T20:38:46.030Z,100907.66
2023-01-10T20:41:24.106Z,100892.81
2023-01-10T20:43:51.115Z,100905.66
2023-01-10T20:46:20.482Z,100882.19
2023-01-10T20:48:48.924Z,100876.09
2023-01-10T20:51:19.445Z,100890.75
2023-01-10T20:53:46.646Z,100876.75
2023-01-10T20:56:16.244Z,100875.00
2023-01-10T20:58:43.035Z,100871.50
2023-01-10T21:01:10.479Z,100860.19
2023-01-10T21:03:37.249Z,100855.00
2023-01-10T21:06:04.203Z,100853.25
2023-01-10T21:08:30.703Z,100864.44
2023-01-10T21:10:57.827Z,100855.84
2023-01-10T21:13:24.997Z,100853.13
2023-01-10T21:15:55.683Z,100847.94
2023-01-10T21:18:26.853Z,100840.88
2023-01-10T21:20:55.575Z,100845.13
2023-01-10T21:23:24.323Z,100851.03
2023-01-10T21:25:51.484Z,100825.91
2023-01-10T21:28:18.457Z,100834.50
2023-01-10T21:30:45.868Z,100817.06
2023-01-10T21:33:13.133Z,100823.09
2023-01-10T21:35:39.670Z,100815.25
2023-01-10T21:38:06.108Z,100809.03
2023-01-10T21:40:34.254Z,100822.84
2023-01-10T21:43:00.683Z,100821.09
2023-01-10T21:45:28.434Z,100805.44
2023-01-10T21:47:55.436Z,100811.41
2023-01-10T21:50:22.634Z,100806.19
2023-01-10T21:52:49.185Z,100813.03
2023-01-10T21:55:16.577Z,100817.25
2023-01-10T21:57:43.055Z,100815.56
2023-01-10T22:00:10.256Z,100806.88
2023-01-10T22:02:36.841Z,100797.34
2023-01-10T22:05:03.383Z,100800.69
2023-01-10T22:07:29.841Z,100790.31
2023-01-10T22:09:56.258Z,100788.53
2023-01-10T22:12:24.421Z,100774.63
2023-01-10T22:14:51.131Z,100777.22
2023-01-10T22:17:17.858Z,100778.84
2023-01-10T22:19:44.309Z,100779.69
2023-01-10T22:22:13.820Z,100773.38
2023-01-10T22:24:43.030Z,100768.97
2023-01-10T22:27:10.675Z,100768.91
2023-01-10T22:29:37.061Z,100756.63
2023-01-10T22:32:03.690Z,100760.75
2023-01-10T22:34:30.109Z,100755.44
2023-01-10T22:36:56.521Z,100750.88
2023-01-10T22:39:23.036Z,100753.41
2023-01-10T22:41:49.476Z,100744.78
2023-01-10T22:44:26.643Z,100752.47
2023-01-10T22:46:54.907Z,100743.72
2023-01-10T22:49:21.928Z,100733.34
2023-01-10T22:51:48.369Z,100734.81
2023-01-10T22:54:17.917Z,100741.53
2023-01-10T22:56:46.310Z,100744.84
2023-01-10T22:59:13.342Z,100744.69
2023-01-10T23:01:39.971Z,100729.06
2023-01-10T23:04:06.981Z,100737.56
2023-01-10T23:06:33.468Z,100725.28
2023-01-10T23:09:00.011Z,100714.91
2023-01-10T23:11:26.517Z,100720.78
2023-01-10T23:13:52.976Z,100718.09
2023-01-10T23:16:28.256Z,100725.84
2023-01-10T23:18:56.813Z,100716.97
2023-01-10T23:21:23.431Z,100720.25
2023-01-10T23:23:50.165Z,100726.00
2023-01-10T23:26:16.584Z,100715.38
2023-01-10T23:28:46.829Z,100722.09
2023-01-10T23:31:19.267Z,100721.19
2023-01-10T23:33:45.767Z,100708.94
2023-01-10T23:36:12.639Z,100710.66
2023-01-10T23:38:39.089Z,100704.38
2023-01-10T23:41:06.072Z,100698.94
2023-01-10T23:43:32.736Z,100705.75
2023-01-10T23:45:59.557Z,100701.25
2023-01-10T23:48:26.104Z,100697.72
2023-01-10T23:50:52.637Z,100689.94
2023-01-10T23:53:19.432Z,100691.69
2023-01-10T23:55:46.595Z,100688.88
2023-01-10T23:58:13.640Z,100676.72
